Time;durP1;ratioP1;P1;durP2;ratioP2;P2;SDS_P1;SDS_P2;PMS_P1;PMS_P2;Temp;Humidity;BMP_temperature;BMP_pressure;BME280_temperature;BME280_humidity;BME280_pressure;Samples;Min_cycle;Max_cycle;Signal;HPM_P1;HPM_P2
2022/01/13 00:02:26;;;;;;;61.73;22.80;;;;;;;;;;5072129;28;20807;-70
2022/01/13 00:04:54;;;;;;;53.50;23.20;;;;;;;;;;5072208;28;20545;-69
2022/01/13 00:07:21;;;;;;;56.43;22.47;;;;;;;;;;5071890;28;20459;-71
2022/01/13 00:09:48;;;;;;;57.57;22.20;;;;;;;;;;5071810;28;20800;-69
2022/01/13 00:12:18;;;;;;;56.07;22.33;;;;;;;;;;5072611;28;20451;-69
2022/01/13 00:15:06;;;;;;;57.10;24.50;;;;;;;;;;5075417;28;20455;-69
2022/01/13 00:17:46;;;;;;;51.23;23.30;;;;;;;;;;5075678;28;20463;-70
2022/01/13 00:20:33;;;;;;;54.43;22.83;;;;;;;;;;5075784;28;20457;-70
2022/01/13 00:25:56;;;;;;;48.77;22.63;;;;;;;;;;5050586;28;20502;-69
2022/01/13 00:28:23;;;;;;;51.80;23.57;;;;;;;;;;5075418;28;20477;-71
2022/01/13 00:30:54;;;;;;;50.40;22.77;;;;;;;;;;5075598;28;20937;-69
2022/01/13 00:33:24;;;;;;;52.80;22.10;;;;;;;;;;5075672;28;20815;-74
2022/01/13 00:35:53;;;;;;;50.47;22.13;;;;;;;;;;5075297;28;20514;-69
2022/01/13 00:38:20;;;;;;;46.07;21.77;;;;;;;;;;5075293;28;20960;-69
2022/01/13 00:40:47;;;;;;;58.33;25.30;;;;;;;;;;5075408;28;20452;-70
2022/01/13 00:43:14;;;;;;;60.43;22.80;;;;;;;;;;5075401;28;20455;-70
2022/01/13 00:45:41;;;;;;;60.37;24.00;;;;;;;;;;5075201;28;20503;-69
2022/01/13 00:48:09;;;;;;;55.40;22.63;;;;;;;;;;5075431;28;20460;-69
2022/01/13 00:50:37;;;;;;;54.30;22.90;;;;;;;;;;5075297;28;20455;-70
2022/01/13 00:53:05;;;;;;;51.40;22.63;;;;;;;;;;5075464;28;20570;-71
2022/01/13 00:55:45;;;;;;;50.53;23.03;;;;;;;;;;5074875;28;20468;-70
2022/01/13 00:58:13;;;;;;;66.53;24.40;;;;;;;;;;5075290;28;20452;-70
2022/01/13 01:00:40;;;;;;;56.10;26.60;;;;;;;;;;5075121;28;20455;-70
2022/01/13 01:03:08;;;;;;;56.13;22.50;;;;;;;;;;5075264;28;20448;-69
2022/01/13 01:05:35;;;;;;;52.50;21.80;;;;;;;;;;5074617;28;20541;-71
2022/01/13 01:08:02;;;;;;;57.00;26.20;;;;;;;;;;5074982;28;21004;-70
2022/01/13 01:10:31;;;;;;;52.50;22.90;;;;;;;;;;5074865;28;20456;-69
2022/01/13 01:12:58;;;;;;;52.30;23.40;;;;;;;;;;5075029;28;20484;-69
2022/01/13 01:15:27;;;;;;;65.50;25.43;;;;;;;;;;5074774;28;20502;-70
2022/01/13 01:18:02;;;;;;;56.57;23.33;;;;;;;;;;5074868;28;20459;-69
2022/01/13 01:20:44;;;;;;;81.90;25.90;;;;;;;;;;5074573;28;20452;-70
2022/01/13 01:23:16;;;;;;;59.70;22.33;;;;;;;;;;5074919;28;20850;-69
2022/01/13 01:25:57;;;;;;;62.73;25.23;;;;;;;;;;5073500;28;20873;-70
2022/01/13 01:28:33;;;;;;;54.23;24.43;;;;;;;;;;5074445;28;20467;-71
2022/01/13 01:31:00;;;;;;;51.03;20.90;;;;;;;;;;5074666;28;20459;-70
2022/01/13 01:33:27;;;;;;;51.90;23.47;;;;;;;;;;5074530;28;20450;-71
2022/01/13 01:35:57;;;;;;;63.47;24.00;;;;;;;;;;5074630;28;20464;-69
2022/01/13 01:38:24;;;;;;;65.37;26.67;;;;;;;;;;5074274;28;20487;-71
2022/01/13 01:40:52;;;;;;;46.07;22.50;;;;;;;;;;5074490;28;20462;-69
2022/01/13 01:43:19;;;;;;;45.97;20.83;;;;;;;;;;5074303;28;20809;-69
2022/01/13 01:45:49;;;;;;;61.83;25.93;;;;;;;;;;5073881;28;20491;-70
2022/01/13 01:48:19;;;;;;;53.43;22.23;;;;;;;;;;5074203;28;20459;-69
2022/01/13 01:50:54;;;;;;;56.63;21.60;;;;;;;;;;5074072;28;20890;-70
2022/01/13 01:53:22;;;;;;;56.13;22.73;;;;;;;;;;5074048;28;20513;-71
2022/01/13 01:55:49;;;;;;;47.33;21.20;;;;;;;;;;5073701;28;20463;-71
2022/01/13 01:58:17;;;;;;;41.23;20.60;;;;;;;;;;5074072;28;20469;-70
2022/01/13 02:00:44;;;;;;;59.47;21.97;;;;;;;;;;5074243;28;20462;-70
2022/01/13 02:03:12;;;;;;;49.53;21.37;;;;;;;;;;5073934;28;20464;-69
2022/01/13 02:05:39;;;;;;;56.93;21.17;;;;;;;;;;5073507;28;20491;-70
2022/01/13 02:08:07;;;;;;;49.20;21.40;;;;;;;;;;5073838;28;20450;-69
2022/01/13 02:10:34;;;;;;;61.67;23.17;;;;;;;;;;5073577;28;20451;-70
2022/01/13 02:13:05;;;;;;;43.23;21.13;;;;;;;;;;5073733;28;20451;-70
2022/01/13 02:15:37;;;;;;;48.43;21.13;;;;;;;;;;5073459;28;20562;-70
2022/01/13 02:18:06;;;;;;;51.87;22.57;;;;;;;;;;5073714;28;20456;-69
2022/01/13 02:20:49;;;;;;;55.90;22.83;;;;;;;;;;5073533;28;20451;-70
2022/01/13 02:23:28;;;;;;;44.30;19.97;;;;;;;;;;5073574;28;20538;-70
2022/01/13 02:25:55;;;;;;;51.20;24.03;;;;;;;;;;5073353;28;20495;-69
2022/01/13 02:28:22;;;;;;;56.17;24.80;;;;;;;;;;5073333;28;20448;-69
2022/01/13 02:30:49;;;;;;;51.97;20.60;;;;;;;;;;5073668;28;20448;-69
2022/01/13 02:33:16;;;;;;;50.30;18.37;;;;;;;;;;5073321;28;20452;-71
2022/01/13 02:35:43;;;;;;;52.93;23.30;;;;;;;;;;5072920;28;20839;-70
2022/01/13 02:38:12;;;;;;;48.80;20.67;;;;;;;;;;5073095;28;20455;-69
2022/01/13 02:40:40;;;;;;;43.87;20.70;;;;;;;;;;5073483;28;20452;-70
2022/01/13 02:43:07;;;;;;;49.97;22.50;;;;;;;;;;5073356;28;20459;-69
2022/01/13 02:45:38;;;;;;;50.57;23.00;;;;;;;;;;5072785;28;20496;-71
2022/01/13 02:48:27;;;;;;;44.73;21.30;;;;;;;;;;5073227;28;20956;-71
2022/01/13 02:50:54;;;;;;;48.63;20.40;;;;;;;;;;5073298;28;20483;-69
2022/01/13 02:53:23;;;;;;;56.83;23.80;;;;;;;;;;5073180;28;20458;-71
2022/01/13 02:55:51;;;;;;;55.27;21.47;;;;;;;;;;5072850;28;20824;-69
2022/01/13 02:58:18;;;;;;;57.87;24.50;;;;;;;;;;5073043;28;20526;-69
2022/01/13 03:00:45;;;;;;;52.13;24.33;;;;;;;;;;5073152;28;20451;-69
2022/01/13 03:03:13;;;;;;;60.03;24.23;;;;;;;;;;5073146;28;20452;-69
2022/01/13 03:05:41;;;;;;;55.20;27.37;;;;;;;;;;5072658;28;20495;-70
2022/01/13 03:08:10;;;;;;;56.03;21.63;;;;;;;;;;5073118;28;20458;-69
2022/01/13 03:10:39;;;;;;;46.80;23.97;;;;;;;;;;5072953;28;20936;-70
2022/01/13 03:13:07;;;;;;;46.90;22.23;;;;;;;;;;5073029;28;20470;-71
2022/01/13 03:15:34;;;;;;;52.43;23.40;;;;;;;;;;5072610;28;20467;-70
2022/01/13 03:18:02;;;;;;;46.90;20.43;;;;;;;;;;5072860;28;20448;-69
2022/01/13 03:20:29;;;;;;;39.80;18.00;;;;;;;;;;5073241;28;20446;-69
2022/01/13 03:22:56;;;;;;;50.80;21.23;;;;;;;;;;5073051;28;20455;-69
2022/01/13 03:25:24;;;;;;;59.67;22.63;;;;;;;;;;5072466;28;20498;-70
2022/01/13 03:27:57;;;;;;;57.07;23.70;;;;;;;;;;5072788;28;20553;-69
2022/01/13 03:30:24;;;;;;;53.93;24.30;;;;;;;;;;5072659;28;20468;-70
2022/01/13 03:32:51;;;;;;;54.60;22.97;;;;;;;;;;5072774;28;20459;-69
2022/01/13 03:35:18;;;;;;;50.40;21.47;;;;;;;;;;5072734;28;20995;-69
2022/01/13 03:37:46;;;;;;;52.63;22.20;;;;;;;;;;5072345;28;20455;-69
2022/01/13 03:40:13;;;;;;;61.43;25.70;;;;;;;;;;5072791;28;20448;-70
2022/01/13 03:42:40;;;;;;;63.53;24.33;;;;;;;;;;5072626;28;20459;-69
2022/01/13 03:45:11;;;;;;;67.93;23.10;;;;;;;;;;5072437;28;20529;-70
2022/01/13 03:47:38;;;;;;;54.90;23.00;;;;;;;;;;5073710;28;20456;-70
2022/01/13 03:50:05;;;;;;;55.67;22.73;;;;;;;;;;5076672;28;20466;-70
2022/01/13 03:52:54;;;;;;;61.63;22.40;;;;;;;;;;5076369;28;20809;-70
2022/01/13 03:55:39;;;;;;;56.87;23.73;;;;;;;;;;5076178;28;20468;-69
2022/01/13 03:58:27;;;;;;;48.50;23.50;;;;;;;;;;5076307;28;20451;-69
2022/01/13 04:01:16;;;;;;;44.63;19.73;;;;;;;;;;5076156;28;20444;-69
2022/01/13 04:03:44;;;;;;;50.50;22.13;;;;;;;;;;5076078;28;20940;-71
2022/01/13 04:06:31;;;;;;;43.83;20.90;;;;;;;;;;5076193;28;20541;-69
2022/01/13 04:08:58;;;;;;;43.97;20.77;;;;;;;;;;5076219;28;20459;-69
2022/01/13 04:11:26;;;;;;;54.73;23.40;;;;;;;;;;5075946;28;20458;-70
2022/01/13 04:13:57;;;;;;;58.97;22.37;;;;;;;;;;5075964;28;20455;-69
2022/01/13 04:16:27;;;;;;;52.37;20.13;;;;;;;;;;5075924;28;20562;-71
2022/01/13 04:18:56;;;;;;;53.17;22.53;;;;;;;;;;5076139;28;20554;-69
2022/01/13 04:21:23;;;;;;;50.33;20.67;;;;;;;;;;5075887;28;20508;-69
2022/01/13 04:23:53;;;;;;;41.53;18.50;;;;;;;;;;5075772;28;20482;-69
2022/01/13 04:26:27;;;;;;;62.47;22.97;;;;;;;;;;5075778;28;20502;-69
2022/01/13 04:29:01;;;;;;;57.57;22.63;;;;;;;;;;5075650;28;20498;-69
2022/01/13 04:31:30;;;;;;;55.10;20.03;;;;;;;;;;5075747;28;20451;-69
2022/01/13 04:33:57;;;;;;;73.23;26.57;;;;;;;;;;5075379;28;20461;-69
2022/01/13 04:36:24;;;;;;;55.27;21.97;;;;;;;;;;5075656;28;20471;-70
2022/01/13 04:38:51;;;;;;;42.97;19.87;;;;;;;;;;5075263;28;20801;-69
2022/01/13 04:41:28;;;;;;;57.33;22.43;;;;;;;;;;5075720;28;20462;-69
2022/01/13 04:43:55;;;;;;;58.03;22.60;;;;;;;;;;5075354;28;20466;-69
2022/01/13 04:46:22;;;;;;;64.70;24.33;;;;;;;;;;5075287;28;20494;-69
2022/01/13 04:48:51;;;;;;;53.60;22.23;;;;;;;;;;5075286;28;20467;-70
2022/01/13 04:51:18;;;;;;;63.50;21.00;;;;;;;;;;5075421;28;20448;-69
2022/01/13 04:53:46;;;;;;;55.50;21.93;;;;;;;;;;5075044;28;20521;-70
2022/01/13 04:56:16;;;;;;;51.37;21.80;;;;;;;;;;5075186;28;20479;-69
2022/01/13 04:58:43;;;;;;;52.33;21.80;;;;;;;;;;5074647;28;20444;-69
2022/01/13 05:01:10;;;;;;;49.73;21.67;;;;;;;;;;5074916;28;20815;-69
2022/01/13 05:03:37;;;;;;;61.73;24.83;;;;;;;;;;5074826;28;20452;-69
2022/01/13 05:06:06;;;;;;;58.50;25.67;;;;;;;;;;5075098;28;20996;-69
2022/01/13 05:08:33;;;;;;;58.50;23.80;;;;;;;;;;5074884;28;20448;-70
2022/01/13 05:11:00;;;;;;;64.07;24.27;;;;;;;;;;5074914;28;20452;-69
2022/01/13 05:13:27;;;;;;;47.37;23.00;;;;;;;;;;5074814;28;20444;-70
2022/01/13 05:15:55;;;;;;;50.93;21.63;;;;;;;;;;5074968;28;20478;-70
2022/01/13 05:18:29;;;;;;;55.27;23.53;;;;;;;;;;5074979;28;20452;-69
2022/01/13 05:21:04;;;;;;;56.40;22.23;;;;;;;;;;5075082;28;20509;-70
2022/01/13 05:23:32;;;;;;;54.77;23.00;;;;;;;;;;5074590;28;20497;-70
2022/01/13 05:26:01;;;;;;;51.80;21.83;;;;;;;;;;5074530;28;20499;-72
2022/01/13 05:28:28;;;;;;;67.00;20.50;;;;;;;;;;5074390;28;20967;-69
2022/01/13 05:30:56;;;;;;;47.97;21.73;;;;;;;;;;5074918;28;20550;-69
2022/01/13 05:33:23;;;;;;;49.80;22.63;;;;;;;;;;5074836;28;20443;-70
2022/01/13 05:35:50;;;;;;;53.90;21.83;;;;;;;;;;5074219;28;20479;-70
2022/01/13 05:38:18;;;;;;;59.83;26.07;;;;;;;;;;5074203;28;20455;-70
2022/01/13 05:40:47;;;;;;;50.67;21.37;;;;;;;;;;5074297;28;20456;-69
2022/01/13 05:43:14;;;;;;;45.80;22.00;;;;;;;;;;5074337;28;20455;-70
2022/01/13 05:45:41;;;;;;;52.30;25.97;;;;;;;;;;5073950;28;20838;-70
2022/01/13 05:48:10;;;;;;;48.20;22.50;;;;;;;;;;5074432;28;20966;-70
2022/01/13 05:50:37;;;;;;;57.13;21.07;;;;;;;;;;5074154;28;20452;-70
2022/01/13 05:53:04;;;;;;;48.53;20.73;;;;;;;;;;5074216;28;20949;-70
2022/01/13 05:55:32;;;;;;;52.50;22.70;;;;;;;;;;5073761;28;20478;-70
2022/01/13 05:58:00;;;;;;;53.03;23.10;;;;;;;;;;5073966;28;20451;-69
2022/01/13 06:00:27;;;;;;;56.73;23.13;;;;;;;;;;5073876;28;20459;-70
2022/01/13 06:02:55;;;;;;;49.50;21.60;;;;;;;;;;5074123;28;20459;-69
2022/01/13 06:05:22;;;;;;;64.57;24.70;;;;;;;;;;5073670;28;21004;-69
2022/01/13 06:07:49;;;;;;;58.37;23.70;;;;;;;;;;5073720;28;20992;-70
2022/01/13 06:10:19;;;;;;;49.60;22.17;;;;;;;;;;5073327;28;20452;-70
2022/01/13 06:12:47;;;;;;;57.90;23.97;;;;;;;;;;5073995;28;20466;-69
2022/01/13 06:15:15;;;;;;;47.60;21.93;;;;;;;;;;5073809;28;21007;-69
2022/01/13 06:17:44;;;;;;;48.33;20.93;;;;;;;;;;5073595;28;20450;-69
2022/01/13 06:20:12;;;;;;;50.70;22.87;;;;;;;;;;5073527;28;20462;-70
2022/01/13 06:22:40;;;;;;;53.47;22.57;;;;;;;;;;5073762;28;20456;-70
2022/01/13 06:25:08;;;;;;;38.17;19.30;;;;;;;;;;5073259;28;20471;-70
2022/01/13 06:27:35;;;;;;;51.27;20.97;;;;;;;;;;5073341;28;20490;-70
2022/01/13 06:30:03;;;;;;;51.97;22.30;;;;;;;;;;5073550;28;20474;-70
2022/01/13 06:32:31;;;;;;;46.97;20.37;;;;;;;;;;5073323;28;20953;-70
2022/01/13 06:34:58;;;;;;;50.93;20.63;;;;;;;;;;5073134;28;20479;-70
2022/01/13 06:37:25;;;;;;;47.83;20.60;;;;;;;;;;5073156;28;20455;-70
2022/01/13 06:39:52;;;;;;;41.63;20.57;;;;;;;;;;5073432;28;20452;-69
2022/01/13 06:42:20;;;;;;;41.60;21.23;;;;;;;;;;5073312;28;20452;-69
2022/01/13 06:44:47;;;;;;;56.93;22.03;;;;;;;;;;5072856;28;20439;-69
2022/01/13 06:47:14;;;;;;;51.83;21.50;;;;;;;;;;5073173;28;20490;-69
2022/01/13 06:49:43;;;;;;;44.33;18.80;;;;;;;;;;5073112;28;20444;-69
2022/01/13 06:52:10;;;;;;;52.57;20.70;;;;;;;;;;5073337;28;20447;-69
2022/01/13 06:54:38;;;;;;;44.20;19.17;;;;;;;;;;5072951;28;20467;-70
2022/01/13 06:57:05;;;;;;;44.43;18.33;;;;;;;;;;5073077;28;20455;-69
2022/01/13 06:59:33;;;;;;;62.67;21.87;;;;;;;;;;5072959;28;20443;-70
2022/01/13 07:02:01;;;;;;;40.63;17.50;;;;;;;;;;5073154;28;20450;-69
2022/01/13 07:04:28;;;;;;;43.53;21.10;;;;;;;;;;5072718;28;20448;-71
2022/01/13 07:06:57;;;;;;;54.83;23.97;;;;;;;;;;5073367;28;20573;-70
2022/01/13 07:09:24;;;;;;;45.07;21.30;;;;;;;;;;5073058;28;20454;-70
2022/01/13 07:11:52;;;;;;;52.87;20.63;;;;;;;;;;5073105;28;20801;-70
2022/01/13 07:14:19;;;;;;;46.13;20.00;;;;;;;;;;5072854;28;20448;-69
2022/01/13 07:16:46;;;;;;;47.87;19.83;;;;;;;;;;5072915;28;21000;-70
2022/01/13 07:19:15;;;;;;;40.57;22.70;;;;;;;;;;5073060;28;20455;-70
2022/01/13 07:21:42;;;;;;;42.83;20.47;;;;;;;;;;5072959;28;20533;-70
2022/01/13 07:24:11;;;;;;;44.63;20.10;;;;;;;;;;5076456;28;20447;-69
2022/01/13 07:26:38;;;;;;;58.10;22.40;;;;;;;;;;5076929;28;21018;-70
2022/01/13 07:29:07;;;;;;;40.53;21.20;;;;;;;;;;5076941;28;20474;-70
2022/01/13 07:31:34;;;;;;;40.30;18.13;;;;;;;;;;5076826;28;20466;-69
2022/01/13 07:34:01;;;;;;;37.97;16.73;;;;;;;;;;5076862;28;20455;-69
2022/01/13 07:36:28;;;;;;;34.53;18.53;;;;;;;;;;5072420;28;21082;-70
2022/01/13 07:38:56;;;;;;;35.40;18.50;;;;;;;;;;5073519;28;20455;-71
2022/01/13 07:41:24;;;;;;;48.53;20.50;;;;;;;;;;5075317;28;20810;-70
2022/01/13 07:43:54;;;;;;;34.07;15.30;;;;;;;;;;5074856;28;20451;-70
2022/01/13 07:46:22;;;;;;;36.03;16.10;;;;;;;;;;5075132;28;20472;-71
2022/01/13 07:48:49;;;;;;;44.90;20.63;;;;;;;;;;5075080;28;20478;-71
2022/01/13 07:51:16;;;;;;;35.93;17.50;;;;;;;;;;5071253;28;20459;-72
2022/01/13 07:53:43;;;;;;;43.20;19.50;;;;;;;;;;5074627;28;20462;-72
2022/01/13 07:56:11;;;;;;;39.23;16.40;;;;;;;;;;5074834;28;20467;-70
2022/01/13 07:58:40;;;;;;;33.63;17.60;;;;;;;;;;5074748;28;20458;-71
2022/01/13 08:01:07;;;;;;;36.17;15.27;;;;;;;;;;5074884;28;20886;-71
2022/01/13 08:03:34;;;;;;;34.50;17.00;;;;;;;;;;5074634;28;20461;-71
2022/01/13 08:06:04;;;;;;;31.50;15.07;;;;;;;;;;5074639;28;20468;-71
2022/01/13 08:08:31;;;;;;;39.77;17.40;;;;;;;;;;5074768;28;20933;-71
2022/01/13 08:10:58;;;;;;;37.13;19.60;;;;;;;;;;5074867;28;20944;-70
2022/01/13 08:13:25;;;;;;;44.27;20.20;;;;;;;;;;5074442;28;20462;-71
2022/01/13 08:15:55;;;;;;;48.70;21.27;;;;;;;;;;5074569;28;20484;-70
2022/01/13 08:21:07;;;;;;;39.73;18.80;;;;;;;;;;5074441;28;20512;-71
2022/01/13 08:23:34;;;;;;;40.70;17.67;;;;;;;;;;5074409;28;20960;-70
2022/01/13 08:26:01;;;;;;;42.37;20.40;;;;;;;;;;5074384;28;20471;-70
2022/01/13 08:28:29;;;;;;;28.60;16.37;;;;;;;;;;5073920;28;20491;-70
2022/01/13 08:30:58;;;;;;;38.43;18.00;;;;;;;;;;5074804;28;20450;-70
2022/01/13 08:33:25;;;;;;;36.07;17.23;;;;;;;;;;5073431;28;20956;-71
2022/01/13 08:35:52;;;;;;;31.77;18.00;;;;;;;;;;5073806;28;20478;-71
2022/01/13 08:38:21;;;;;;;43.87;18.77;;;;;;;;;;5057839;28;20469;-71
2022/01/13 08:40:49;;;;;;;40.73;18.03;;;;;;;;;;5054407;28;20471;-70
2022/01/13 08:43:17;;;;;;;43.30;18.27;;;;;;;;;;5054011;28;20452;-71
2022/01/13 08:45:44;;;;;;;39.17;18.63;;;;;;;;;;5053822;28;20465;-71
2022/01/13 08:48:13;;;;;;;38.67;19.83;;;;;;;;;;5053931;28;20488;-71
2022/01/13 08:50:40;;;;;;;36.73;17.80;;;;;;;;;;5053305;28;20977;-70
2022/01/13 08:53:07;;;;;;;37.40;19.70;;;;;;;;;;5053855;28;20460;-70
2022/01/13 08:55:34;;;;;;;40.53;20.00;;;;;;;;;;5053751;28;21005;-70
2022/01/13 08:58:02;;;;;;;33.50;17.90;;;;;;;;;;5053731;28;20459;-70
2022/01/13 09:00:29;;;;;;;37.60;20.60;;;;;;;;;;5053792;28;20461;-71
2022/01/13 09:02:56;;;;;;;42.67;20.37;;;;;;;;;;5053597;28;20453;-71
2022/01/13 09:05:24;;;;;;;33.87;17.07;;;;;;;;;;5053300;28;20476;-73
2022/01/13 09:07:52;;;;;;;42.80;20.80;;;;;;;;;;5053912;28;20939;-72
2022/01/13 09:10:19;;;;;;;36.33;17.70;;;;;;;;;;5053735;28;20459;-70
2022/01/13 09:12:46;;;;;;;42.00;20.03;;;;;;;;;;5053289;28;20884;-70
2022/01/13 09:15:19;;;;;;;43.30;21.63;;;;;;;;;;5053246;28;20477;-70
2022/01/13 09:17:51;;;;;;;38.20;21.93;;;;;;;;;;5053350;28;20452;-70
2022/01/13 09:20:18;;;;;;;40.97;20.90;;;;;;;;;;5053320;28;20528;-69
2022/01/13 09:22:47;;;;;;;39.43;20.60;;;;;;;;;;5052989;28;20453;-71
2022/01/13 09:25:14;;;;;;;34.10;18.03;;;;;;;;;;5053090;28;20469;-69
2022/01/13 09:27:42;;;;;;;40.37;21.37;;;;;;;;;;5053078;28;20491;-70
2022/01/13 09:30:10;;;;;;;46.93;21.50;;;;;;;;;;5053223;28;20469;-70
2022/01/13 09:32:37;;;;;;;40.70;20.57;;;;;;;;;;5053121;28;20448;-71
2022/01/13 09:35:05;;;;;;;41.67;20.50;;;;;;;;;;5052979;28;20834;-71
2022/01/13 09:37:32;;;;;;;44.30;20.10;;;;;;;;;;5052735;28;20449;-71
2022/01/13 09:40:00;;;;;;;48.13;26.07;;;;;;;;;;5053118;28;20453;-70
2022/01/13 09:42:29;;;;;;;47.20;24.10;;;;;;;;;;5052863;28;20964;-70
2022/01/13 09:44:57;;;;;;;45.17;23.20;;;;;;;;;;5052152;28;20480;-71
2022/01/13 09:47:24;;;;;;;38.47;21.67;;;;;;;;;;5052814;28;20481;-71
2022/01/13 09:49:52;;;;;;;35.57;20.30;;;;;;;;;;5052532;28;20463;-70
2022/01/13 09:52:21;;;;;;;42.40;24.03;;;;;;;;;;5053344;28;20464;-70
2022/01/13 09:54:48;;;;;;;43.07;22.63;;;;;;;;;;5053785;28;20949;-71
2022/01/13 09:57:16;;;;;;;40.70;21.40;;;;;;;;;;5053845;28;20448;-71
2022/01/13 09:59:43;;;;;;;36.83;21.03;;;;;;;;;;5054211;28;20460;-70
2022/01/13 10:02:11;;;;;;;35.50;21.50;;;;;;;;;;5054136;28;20453;-70
2022/01/13 10:04:48;;;;;;;42.37;20.63;;;;;;;;;;5053687;28;20459;-70
2022/01/13 10:07:18;;;;;;;38.40;21.40;;;;;;;;;;5053933;28;20487;-70
2022/01/13 10:09:54;;;;;;;34.60;20.57;;;;;;;;;;5053694;28;20457;-70
2022/01/13 10:12:27;;;;;;;37.23;21.70;;;;;;;;;;5053872;28;20459;-70
2022/01/13 10:17:47;;;;;;;36.30;19.87;;;;;;;;;;5053701;28;20423;-70
2022/01/13 10:20:15;;;;;;;57.07;19.70;;;;;;;;;;5053692;28;20460;-71
2022/01/13 10:22:42;;;;;;;37.80;20.50;;;;;;;;;;5053740;28;20451;-70
2022/01/13 10:25:09;;;;;;;35.60;19.93;;;;;;;;;;5053410;28;20479;-69
2022/01/13 10:27:39;;;;;;;39.40;19.70;;;;;;;;;;5053351;28;20522;-69
2022/01/13 10:30:09;;;;;;;32.70;18.10;;;;;;;;;;5053407;28;20469;-70
2022/01/13 10:32:38;;;;;;;35.30;19.73;;;;;;;;;;5053335;28;20547;-71
2022/01/13 10:35:06;;;;;;;32.43;17.73;;;;;;;;;;5053203;28;20488;-70
2022/01/13 10:37:34;;;;;;;32.77;18.57;;;;;;;;;;5053164;28;20460;-70
2022/01/13 10:40:04;;;;;;;40.27;22.27;;;;;;;;;;5053614;28;20452;-69
2022/01/13 10:45:28;;;;;;;39.33;21.70;;;;;;;;;;5052815;28;20457;-70
2022/01/13 10:47:56;;;;;;;27.73;17.30;;;;;;;;;;5053232;28;20497;-69
2022/01/13 10:50:26;;;;;;;36.03;18.83;;;;;;;;;;5053470;28;20950;-69
2022/01/13 10:52:53;;;;;;;44.93;18.40;;;;;;;;;;5053509;28;20478;-70
2022/01/13 10:55:23;;;;;;;27.73;16.27;;;;;;;;;;5052986;28;20480;-70
2022/01/13 10:57:52;;;;;;;30.67;18.50;;;;;;;;;;5052900;28;20460;-69
2022/01/13 11:00:20;;;;;;;24.30;15.60;;;;;;;;;;5053073;28;20457;-69
2022/01/13 11:02:48;;;;;;;27.17;15.67;;;;;;;;;;5052930;28;20798;-70
2022/01/13 11:05:15;;;;;;;35.20;16.43;;;;;;;;;;5052698;28;20484;-69
2022/01/13 11:07:43;;;;;;;27.53;15.40;;;;;;;;;;5052706;28;20495;-70
2022/01/13 11:10:11;;;;;;;26.93;16.23;;;;;;;;;;5052776;28;20506;-70
2022/01/13 11:12:41;;;;;;;21.80;14.07;;;;;;;;;;5052963;28;20445;-70
2022/01/13 11:15:13;;;;;;;22.30;14.67;;;;;;;;;;5052785;28;20568;-70
2022/01/13 11:17:43;;;;;;;24.00;14.03;;;;;;;;;;5052898;28;20453;-70
2022/01/13 11:20:11;;;;;;;22.93;13.43;;;;;;;;;;5052786;28;20526;-69
2022/01/13 11:22:40;;;;;;;32.13;16.47;;;;;;;;;;5052670;28;20937;-72
2022/01/13 11:25:08;;;;;;;26.80;15.17;;;;;;;;;;5052709;28;20480;-70
2022/01/13 11:27:36;;;;;;;21.73;14.60;;;;;;;;;;5052801;28;21016;-70
2022/01/13 11:30:05;;;;;;;21.23;13.60;;;;;;;;;;5052922;28;20548;-70
2022/01/13 11:32:33;;;;;;;24.00;13.90;;;;;;;;;;5052834;28;20957;-70
2022/01/13 11:35:00;;;;;;;24.97;15.30;;;;;;;;;;5052850;28;20473;-70
2022/01/13 11:37:28;;;;;;;24.13;14.70;;;;;;;;;;5052446;28;20452;-70
2022/01/13 11:39:56;;;;;;;26.10;14.67;;;;;;;;;;5052725;28;20463;-70
2022/01/13 11:42:24;;;;;;;22.10;14.70;;;;;;;;;;5052752;28;20445;-71
2022/01/13 11:45:06;;;;;;;31.40;18.43;;;;;;;;;;5052438;28;20822;-70
2022/01/13 11:47:34;;;;;;;33.27;19.50;;;;;;;;;;5052197;28;20456;-72
2022/01/13 11:50:15;;;;;;;34.60;17.27;;;;;;;;;;5052578;28;20455;-69
2022/01/13 11:52:43;;;;;;;26.57;14.27;;;;;;;;;;5052580;28;20484;-69
2022/01/13 11:55:21;;;;;;;32.47;17.80;;;;;;;;;;5052475;28;20476;-69
2022/01/13 11:57:48;;;;;;;44.50;24.83;;;;;;;;;;5052354;28;20444;-71
2022/01/13 12:00:23;;;;;;;37.43;19.57;;;;;;;;;;5052519;28;20456;-69
2022/01/13 12:02:52;;;;;;;35.00;17.40;;;;;;;;;;5052508;28;20455;-69
2022/01/13 12:05:21;;;;;;;27.93;15.73;;;;;;;;;;5052273;28;20472;-69
2022/01/13 12:07:48;;;;;;;28.43;15.53;;;;;;;;;;5052626;28;20997;-69
2022/01/13 12:10:34;;;;;;;27.00;15.97;;;;;;;;;;5055968;28;20825;-69
2022/01/13 12:13:02;;;;;;;27.37;16.40;;;;;;;;;;5055450;28;20952;-69
2022/01/13 12:15:30;;;;;;;33.70;17.37;;;;;;;;;;5055907;28;20932;-69
2022/01/13 12:18:02;;;;;;;50.07;31.47;;;;;;;;;;5056046;28;20817;-69
2022/01/13 12:20:38;;;;;;;25.67;13.90;;;;;;;;;;5055908;28;20452;-69
2022/01/13 12:23:16;;;;;;;25.50;17.23;;;;;;;;;;5056056;28;20452;-70
2022/01/13 12:25:44;;;;;;;36.30;15.50;;;;;;;;;;5055527;28;20476;-69
2022/01/13 12:28:13;;;;;;;27.33;14.17;;;;;;;;;;5055838;28;21011;-69
2022/01/13 12:30:40;;;;;;;21.73;12.83;;;;;;;;;;5055761;28;20463;-69
2022/01/13 12:33:09;;;;;;;23.87;14.73;;;;;;;;;;5055652;28;20514;-70
2022/01/13 12:35:44;;;;;;;25.00;18.50;;;;;;;;;;5055369;28;21028;-70
2022/01/13 12:38:12;;;;;;;23.77;13.80;;;;;;;;;;5055363;28;20824;-70
2022/01/13 12:40:45;;;;;;;24.80;14.10;;;;;;;;;;5055655;28;20459;-69
2022/01/13 12:43:22;;;;;;;26.00;14.57;;;;;;;;;;5055726;28;20457;-69
2022/01/13 12:45:49;;;;;;;28.80;18.30;;;;;;;;;;5055311;28;20472;-71
2022/01/13 12:48:18;;;;;;;29.47;15.60;;;;;;;;;;5055381;28;20592;-70
2022/01/13 12:50:45;;;;;;;27.90;16.50;;;;;;;;;;5055351;28;20456;-70
2022/01/13 12:53:15;;;;;;;28.47;14.37;;;;;;;;;;5055486;28;20445;-70
2022/01/13 12:55:43;;;;;;;24.20;14.30;;;;;;;;;;5055233;28;20495;-70
2022/01/13 12:58:10;;;;;;;28.63;14.60;;;;;;;;;;5055237;28;20460;-70
2022/01/13 13:00:39;;;;;;;37.30;18.77;;;;;;;;;;5055235;28;20452;-70
2022/01/13 13:03:07;;;;;;;28.90;14.83;;;;;;;;;;5055246;28;20453;-70
2022/01/13 13:05:39;;;;;;;33.80;16.20;;;;;;;;;;5054791;28;20530;-70
2022/01/13 13:08:06;;;;;;;35.13;20.20;;;;;;;;;;5055234;28;20460;-70
2022/01/13 13:10:34;;;;;;;32.70;17.10;;;;;;;;;;5055036;28;20523;-70
2022/01/13 13:13:01;;;;;;;32.00;17.83;;;;;;;;;;5055100;28;20898;-70
2022/01/13 13:15:41;;;;;;;32.87;14.90;;;;;;;;;;5053969;28;20847;-71
2022/01/13 13:18:12;;;;;;;34.13;16.90;;;;;;;;;;5055008;28;20967;-69
2022/01/13 13:20:40;;;;;;;25.43;14.87;;;;;;;;;;5053429;28;20460;-69
2022/01/13 13:23:10;;;;;;;27.73;15.40;;;;;;;;;;5054791;28;20823;-71
2022/01/13 13:25:39;;;;;;;25.90;14.80;;;;;;;;;;5054238;28;20476;-70
2022/01/13 13:28:19;;;;;;;28.63;14.70;;;;;;;;;;5054631;28;20942;-69
2022/01/13 13:30:46;;;;;;;25.33;14.83;;;;;;;;;;5055080;28;20439;-72
2022/01/13 13:33:14;;;;;;;25.80;14.33;;;;;;;;;;5052424;28;20942;-71
2022/01/13 13:35:42;;;;;;;30.93;16.23;;;;;;;;;;5052785;28;20480;-71
2022/01/13 13:38:12;;;;;;;27.40;14.50;;;;;;;;;;5052788;28;20816;-71
2022/01/13 13:40:43;;;;;;;33.23;18.80;;;;;;;;;;5052661;28;20548;-71
2022/01/13 13:43:10;;;;;;;28.50;15.90;;;;;;;;;;5053078;28;20934;-71
2022/01/13 13:45:37;;;;;;;27.57;16.40;;;;;;;;;;5052473;28;20464;-71
2022/01/13 13:48:04;;;;;;;29.20;15.10;;;;;;;;;;5053511;28;20444;-71
2022/01/13 13:50:32;;;;;;;22.53;14.70;;;;;;;;;;5052818;28;20456;-71
2022/01/13 13:53:07;;;;;;;30.03;14.50;;;;;;;;;;5052778;28;20523;-72
2022/01/13 13:55:35;;;;;;;39.83;16.07;;;;;;;;;;5052330;28;20482;-71
2022/01/13 13:58:02;;;;;;;37.63;17.60;;;;;;;;;;5052745;28;20460;-71
2022/01/13 14:00:29;;;;;;;33.87;17.30;;;;;;;;;;5053333;28;20457;-71
2022/01/13 14:02:58;;;;;;;26.30;15.80;;;;;;;;;;5053968;28;20910;-70
2022/01/13 14:05:38;;;;;;;28.13;14.17;;;;;;;;;;5054041;28;20476;-71
2022/01/13 14:08:06;;;;;;;28.57;14.10;;;;;;;;;;5054050;28;20449;-70
2022/01/13 14:10:35;;;;;;;26.20;15.60;;;;;;;;;;5053926;28;20457;-70
2022/01/13 14:13:03;;;;;;;32.30;17.97;;;;;;;;;;5053972;28;20456;-70
2022/01/13 14:15:33;;;;;;;36.57;19.30;;;;;;;;;;5053540;28;20469;-69
2022/01/13 14:18:12;;;;;;;35.97;20.27;;;;;;;;;;5053770;28;20476;-70
2022/01/13 14:20:40;;;;;;;42.03;20.80;;;;;;;;;;5053731;28;21008;-70
2022/01/13 14:23:08;;;;;;;41.33;21.27;;;;;;;;;;5053518;28;20459;-70
2022/01/13 14:25:39;;;;;;;43.87;23.57;;;;;;;;;;5053399;28;20477;-70
2022/01/13 14:28:07;;;;;;;41.07;22.40;;;;;;;;;;5053548;28;20464;-70
2022/01/13 14:30:36;;;;;;;41.33;19.47;;;;;;;;;;5053209;28;21032;-71
2022/01/13 14:33:16;;;;;;;48.47;23.63;;;;;;;;;;5053076;28;20463;-70
2022/01/13 14:35:45;;;;;;;36.37;19.60;;;;;;;;;;5053120;28;20464;-70
2022/01/13 14:38:12;;;;;;;43.00;20.47;;;;;;;;;;5053131;28;20937;-70
2022/01/13 14:40:44;;;;;;;41.33;19.50;;;;;;;;;;5053221;28;20792;-70